Portada
METAR-TAF:

METAR-TAF

Aeropuertos :

Aeropuerto de París-Charles de Gaulle

París-Charles De Gaulle, Francia

latitud: 49-01N, longitud: 002-32E, altitud: 118 m

Observación

El informe se hizo hace 35 minutos, a las 16:00 UTC
Viento 3 kt del oeste, variando entre oeste-suroeste y norte
Temperatura 19°C
Humedad 43%
Presión 1030 hPa
Visibilidad 10 km o más
Escasas nubes a una altura de 4800 ft

METAR: LFPG 061600Z 28003KT 240V360 9999 FEW048 19/06 Q1030 NOSIG

Hora: 18:35 (16:35 UTC)

Pronóstico

El informe se hizo hace 5 horas y 35 minutos, a las 11:00 UTC
Pronóstico válido del 06 a las 12 UTC al 07 a las 18 UTC
Viento 5 kt del oeste-suroeste
Visibilidad 10 km o más
sin nubes por debajo de 1500 m y sin presencia de cumulonimbus.

TAF: LFPG 061100Z 0612/0718 24005KT CAVOK TX19/0614Z TN07/0706Z

Observaciones y pronósticos meteorológicos de más de 4000 aeropuertos (mensajes METAR y TAF).

Los puntos amarillos y rojos representan las estaciones disponibles.

Ponga el ratón en el punto deseado para ver el nombre de la estación.

Haga clic para ver las observaciones y los pronósticos meteorológicos.

Para cambiar el mapa : haga clic en los botones verdes con una cruz de color negro para hacer un zoom, en el botón verde con un guión para alejar o en las flechas verdes para mapas adyacentes.


METAR-TAF: